createdAt,value
2022-07-29T00:00:30.342Z,1015.67
2022-07-29T00:01:30.358Z,1015.64
2022-07-29T00:02:30.366Z,1015.62
2022-07-29T00:03:30.339Z,1015.58
2022-07-29T00:04:30.420Z,1015.56
2022-07-29T00:05:30.310Z,1015.55
2022-07-29T00:06:30.264Z,1015.49
2022-07-29T00:07:30.266Z,1015.50
2022-07-29T00:08:30.234Z,1015.53
2022-07-29T00:09:30.251Z,1015.46
2022-07-29T00:10:30.271Z,1015.50
2022-07-29T00:11:30.227Z,1015.51
2022-07-29T00:12:30.180Z,1015.49
2022-07-29T00:13:32.093Z,1015.49
2022-07-29T00:14:30.180Z,1015.46
2022-07-29T00:15:30.173Z,1015.49
2022-07-29T00:16:30.220Z,1015.48
2022-07-29T00:17:30.143Z,1015.48
2022-07-29T00:18:30.108Z,1015.47
2022-07-29T00:19:30.111Z,1015.47
2022-07-29T00:20:30.090Z,1015.46
2022-07-29T00:21:30.074Z,1015.45
2022-07-29T00:22:30.087Z,1015.48
2022-07-29T00:23:32.635Z,1015.42
2022-07-29T00:24:30.025Z,1015.48
2022-07-29T00:25:30.020Z,1015.42
2022-07-29T00:26:30.012Z,1015.45
2022-07-29T00:27:29.997Z,1015.42
2022-07-29T00:28:30.002Z,1015.41
2022-07-29T00:29:34.686Z,1015.40
2022-07-29T00:30:29.955Z,1015.40
2022-07-29T00:31:29.999Z,1015.34
2022-07-29T00:32:29.915Z,1015.38
2022-07-29T00:33:29.925Z,1015.38
2022-07-29T00:34:29.921Z,1015.37
2022-07-29T00:35:29.890Z,1015.39
2022-07-29T00:36:29.874Z,1015.33
2022-07-29T00:37:29.880Z,1015.33
2022-07-29T00:38:29.843Z,1015.33
2022-07-29T00:39:29.836Z,1015.27
2022-07-29T00:40:29.854Z,1015.30
2022-07-29T00:41:29.814Z,1015.29
2022-07-29T00:42:29.798Z,1015.31
2022-07-29T00:43:29.780Z,1015.29
2022-07-29T00:44:29.757Z,1015.27
2022-07-29T00:45:29.760Z,1015.30
2022-07-29T00:46:29.797Z,1015.27
2022-07-29T00:47:29.735Z,1015.26
2022-07-29T00:48:29.716Z,1015.27
2022-07-29T00:49:29.718Z,1015.24
2022-07-29T00:50:29.690Z,1015.24
2022-07-29T00:51:29.676Z,1015.27
2022-07-29T00:52:29.683Z,1015.26
2022-07-29T00:53:29.653Z,1015.26
2022-07-29T00:54:29.627Z,1015.26
2022-07-29T00:55:29.623Z,1015.22
2022-07-29T00:56:29.624Z,1015.24
2022-07-29T00:57:29.625Z,1015.23
2022-07-29T00:58:29.626Z,1015.23
2022-07-29T00:59:34.697Z,1015.24
2022-07-29T01:00:29.653Z,1015.20
2022-07-29T01:01:29.664Z,1015.17
2022-07-29T01:02:29.596Z,1015.15
2022-07-29T01:03:29.517Z,1015.09
2022-07-29T01:04:29.520Z,1015.14
2022-07-29T01:05:48.044Z,1015.16
2022-07-29T01:06:29.481Z,1015.19
2022-07-29T01:07:29.465Z,1015.16
2022-07-29T01:08:29.445Z,1015.18
2022-07-29T01:09:42.831Z,1015.18
2022-07-29T01:10:29.459Z,1015.17
2022-07-29T01:11:29.423Z,1015.17
2022-07-29T01:12:29.407Z,1015.15
2022-07-29T01:13:29.393Z,1015.15
2022-07-29T01:14:29.361Z,1015.14
2022-07-29T01:15:29.358Z,1015.11
2022-07-29T01:16:29.446Z,1015.12
2022-07-29T01:17:35.351Z,1015.09
2022-07-29T01:18:29.316Z,1015.12
2022-07-29T01:19:29.311Z,1015.12
2022-07-29T01:20:31.655Z,1015.11
2022-07-29T01:21:29.285Z,1015.08
2022-07-29T01:22:29.286Z,1015.11
2022-07-29T01:23:29.280Z,1015.12
2022-07-29T01:24:29.224Z,1015.09
2022-07-29T01:25:29.230Z,1015.10
2022-07-29T01:26:29.214Z,1015.08
2022-07-29T01:27:29.195Z,1015.03
2022-07-29T01:28:29.201Z,1015.04
2022-07-29T01:29:29.788Z,1015.02
2022-07-29T01:30:29.159Z,1015.01
2022-07-29T01:31:29.271Z,1014.96
2022-07-29T01:32:29.597Z,1015.00
2022-07-29T01:33:29.114Z,1015.00
2022-07-29T01:34:29.132Z,1015.04
2022-07-29T01:35:29.107Z,1015.09
2022-07-29T01:36:29.064Z,1015.10
2022-07-29T01:37:29.076Z,1015.10
2022-07-29T01:38:29.042Z,1015.11
2022-07-29T01:39:29.180Z,1015.14
2022-07-29T01:40:29.043Z,1015.14
2022-07-29T01:41:29.022Z,1015.17
2022-07-29T01:42:28.986Z,1015.19
2022-07-29T01:43:28.990Z,1015.18
2022-07-29T01:44:28.962Z,1015.22
2022-07-29T01:45:28.957Z,1015.23
2022-07-29T01:46:29.028Z,1015.20
2022-07-29T01:47:28.950Z,1015.23
2022-07-29T01:48:28.903Z,1015.19
2022-07-29T01:49:28.975Z,1015.17
2022-07-29T01:50:28.895Z,1015.20
2022-07-29T01:51:28.877Z,1015.21
2022-07-29T01:52:28.886Z,1015.19
2022-07-29T01:53:28.864Z,1015.21
2022-07-29T01:54:28.836Z,1015.17
2022-07-29T01:55:28.825Z,1015.17
2022-07-29T01:56:28.803Z,1015.23
2022-07-29T01:57:28.795Z,1015.21
2022-07-29T01:58:28.825Z,1015.19
2022-07-29T01:59:28.759Z,1015.19
2022-07-29T02:00:28.755Z,1015.19
2022-07-29T02:01:28.812Z,1015.14
2022-07-29T02:02:28.738Z,1015.15
2022-07-29T02:03:28.712Z,1015.14
2022-07-29T02:04:29.929Z,1015.13
2022-07-29T02:05:28.741Z,1015.14
2022-07-29T02:06:28.682Z,1015.14
2022-07-29T02:07:28.667Z,1015.14
2022-07-29T02:08:28.673Z,1015.15
2022-07-29T02:09:28.687Z,1015.14
2022-07-29T02:10:28.656Z,1015.14
2022-07-29T02:11:28.602Z,1015.13
2022-07-29T02:12:28.607Z,1015.16
2022-07-29T02:13:28.574Z,1015.16
2022-07-29T02:14:28.581Z,1015.13
2022-07-29T02:15:28.544Z,1015.09
2022-07-29T02:16:28.608Z,1015.13
2022-07-29T02:17:28.532Z,1015.10
2022-07-29T02:18:28.524Z,1015.09
2022-07-29T02:19:28.491Z,1015.15
2022-07-29T02:20:28.492Z,1015.15
2022-07-29T02:21:28.461Z,1015.16
2022-07-29T02:22:28.502Z,1015.10
2022-07-29T02:23:28.440Z,1015.09
2022-07-29T02:24:28.447Z,1015.12
2022-07-29T02:25:36.960Z,1015.13
2022-07-29T02:26:28.422Z,1015.14
2022-07-29T02:27:28.396Z,1015.14
2022-07-29T02:28:28.419Z,1015.10
2022-07-29T02:29:28.375Z,1015.11
2022-07-29T02:30:28.381Z,1015.12
2022-07-29T02:31:28.358Z,1015.14
2022-07-29T02:32:28.334Z,1015.16
2022-07-29T02:33:28.317Z,1015.17
2022-07-29T02:34:28.348Z,1015.15
2022-07-29T02:35:28.282Z,1015.13
2022-07-29T02:36:28.320Z,1015.19
2022-07-29T02:37:28.250Z,1015.18
2022-07-29T02:38:28.254Z,1015.15
2022-07-29T02:39:28.226Z,1015.15
2022-07-29T02:40:28.270Z,1015.18
2022-07-29T02:41:28.225Z,1015.10
2022-07-29T02:42:28.200Z,1015.13
2022-07-29T02:43:28.168Z,1015.16
2022-07-29T02:44:34.169Z,1015.13
2022-07-29T02:45:28.152Z,1015.16
2022-07-29T02:46:29.604Z,1015.16
2022-07-29T02:47:28.126Z,1015.17
2022-07-29T02:48:28.119Z,1015.16
2022-07-29T02:49:28.221Z,1015.11
2022-07-29T02:50:28.101Z,1015.17
2022-07-29T02:51:43.538Z,1015.14
2022-07-29T02:52:28.094Z,1015.16
2022-07-29T02:53:28.047Z,1015.16
2022-07-29T02:54:28.034Z,1015.09
2022-07-29T02:55:28.036Z,1015.13
2022-07-29T02:56:28.010Z,1015.12
2022-07-29T02:57:27.985Z,1015.11
2022-07-29T02:58:28.012Z,1015.13
2022-07-29T02:59:27.980Z,1015.14
2022-07-29T03:00:27.960Z,1015.17
2022-07-29T03:01:27.947Z,1015.16
2022-07-29T03:02:27.928Z,1015.15
2022-07-29T03:03:27.906Z,1015.17
2022-07-29T03:04:27.980Z,1015.16
2022-07-29T03:05:27.887Z,1015.16
2022-07-29T03:06:30.990Z,1015.14
2022-07-29T03:07:27.868Z,1015.12
2022-07-29T03:08:27.850Z,1015.12
2022-07-29T03:09:27.840Z,1015.16
2022-07-29T03:10:27.877Z,1015.17
2022-07-29T03:11:46.062Z,1015.17
2022-07-29T03:12:27.799Z,1015.18
2022-07-29T03:13:27.776Z,1015.17
2022-07-29T03:14:27.768Z,1015.21
2022-07-29T03:15:27.763Z,1015.26
2022-07-29T03:16:27.822Z,1015.27
2022-07-29T03:17:27.714Z,1015.23
2022-07-29T03:18:27.714Z,1015.25
2022-07-29T03:19:27.692Z,1015.25
2022-07-29T03:20:27.688Z,1015.23
2022-07-29T03:21:27.626Z,1015.24
2022-07-29T03:22:27.646Z,1015.23
2022-07-29T03:23:27.583Z,1015.25
2022-07-29T03:24:27.588Z,1015.27
2022-07-29T03:25:27.556Z,1015.20
2022-07-29T03:26:27.553Z,1015.21
2022-07-29T03:27:27.532Z,1015.26
2022-07-29T03:28:27.566Z,1015.26
2022-07-29T03:29:33.743Z,1015.24
2022-07-29T03:30:27.525Z,1015.26
2022-07-29T03:31:27.521Z,1015.19
2022-07-29T03:32:27.490Z,1015.20
2022-07-29T03:33:27.474Z,1015.20
2022-07-29T03:34:27.480Z,1015.18
2022-07-29T03:35:27.421Z,1015.20
2022-07-29T03:36:27.432Z,1015.17
2022-07-29T03:37:27.410Z,1015.19
2022-07-29T03:38:27.405Z,1015.19
2022-07-29T03:39:27.371Z,1015.20
2022-07-29T03:40:27.403Z,1015.20
2022-07-29T03:41:27.343Z,1015.25
2022-07-29T03:42:32.391Z,1015.25
2022-07-29T03:43:27.319Z,1015.22
2022-07-29T03:44:27.322Z,1015.26
2022-07-29T03:45:27.290Z,1015.25
2022-07-29T03:46:27.433Z,1015.22
2022-07-29T03:47:49.525Z,1015.20
2022-07-29T03:48:27.279Z,1015.23
2022-07-29T03:49:27.288Z,1015.22
2022-07-29T03:50:27.249Z,1015.21
2022-07-29T03:51:33.079Z,1015.21
2022-07-29T03:52:27.253Z,1015.24
2022-07-29T03:53:27.179Z,1015.26
2022-07-29T03:54:27.186Z,1015.29
2022-07-29T03:55:27.169Z,1015.26
2022-07-29T03:56:27.157Z,1015.31
2022-07-29T03:57:27.132Z,1015.32
2022-07-29T03:58:27.160Z,1015.27
2022-07-29T03:59:27.092Z,1015.28
2022-07-29T04:00:27.111Z,1015.27
2022-07-29T04:01:27.131Z,1015.30
2022-07-29T04:02:30.577Z,1015.24
2022-07-29T04:03:27.099Z,1015.33
2022-07-29T04:04:27.390Z,1015.32
2022-07-29T04:05:27.029Z,1015.31
2022-07-29T04:06:27.039Z,1015.31
2022-07-29T04:07:26.996Z,1015.32
2022-07-29T04:08:27.008Z,1015.34
2022-07-29T04:09:26.972Z,1015.32
2022-07-29T04:10:31.697Z,1015.31
2022-07-29T04:11:26.959Z,1015.34
2022-07-29T04:12:26.944Z,1015.33
2022-07-29T04:13:26.919Z,1015.34
2022-07-29T04:14:26.954Z,1015.37
2022-07-29T04:15:26.887Z,1015.43
2022-07-29T04:16:26.985Z,1015.37
2022-07-29T04:17:26.857Z,1015.40
2022-07-29T04:18:26.898Z,1015.44
2022-07-29T04:19:26.835Z,1015.47
2022-07-29T04:20:26.876Z,1015.49
2022-07-29T04:21:26.823Z,1015.49
2022-07-29T04:22:26.840Z,1015.51
2022-07-29T04:23:26.772Z,1015.53
2022-07-29T04:24:26.825Z,1015.51
2022-07-29T04:25:26.771Z,1015.56
2022-07-29T04:26:26.785Z,1015.53
2022-07-29T04:27:26.719Z,1015.56
2022-07-29T04:28:26.782Z,1015.54
2022-07-29T04:29:26.731Z,1015.50
2022-07-29T04:30:26.732Z,1015.50
2022-07-29T04:31:26.728Z,1015.50
2022-07-29T04:32:26.678Z,1015.52
2022-07-29T04:33:26.644Z,1015.50
2022-07-29T04:34:27.996Z,1015.44
2022-07-29T04:35:26.619Z,1015.47
2022-07-29T04:36:29.050Z,1015.43
2022-07-29T04:37:26.586Z,1015.47
2022-07-29T04:38:26.597Z,1015.48
2022-07-29T04:39:29.494Z,1015.48
2022-07-29T04:40:26.604Z,1015.49
2022-07-29T04:41:32.686Z,1015.50
2022-07-29T04:42:27.756Z,1015.50
2022-07-29T04:43:26.513Z,1015.52
2022-07-29T04:44:28.810Z,1015.56
2022-07-29T04:45:26.509Z,1015.56
2022-07-29T04:46:26.607Z,1015.58
2022-07-29T04:47:26.454Z,1015.59
2022-07-29T04:48:28.635Z,1015.60
2022-07-29T04:49:26.485Z,1015.62
2022-07-29T04:50:26.434Z,1015.64
2022-07-29T04:51:26.409Z,1015.64
2022-07-29T04:52:26.446Z,1015.65
2022-07-29T04:53:26.377Z,1015.62
2022-07-29T04:54:26.397Z,1015.65
2022-07-29T04:55:26.400Z,1015.66
2022-07-29T04:56:26.355Z,1015.65
2022-07-29T04:57:26.332Z,1015.66
2022-07-29T04:58:26.385Z,1015.70
2022-07-29T04:59:26.322Z,1015.70
2022-07-29T05:00:28.121Z,1015.68
2022-07-29T05:01:26.396Z,1015.69
2022-07-29T05:02:26.331Z,1015.72
2022-07-29T05:03:26.254Z,1015.69
2022-07-29T05:04:26.279Z,1015.73
2022-07-29T05:05:26.234Z,1015.74
2022-07-29T05:06:26.220Z,1015.70
2022-07-29T05:07:26.202Z,1015.74
2022-07-29T05:08:26.197Z,1015.69
2022-07-29T05:09:26.160Z,1015.68
2022-07-29T05:10:26.210Z,1015.64
2022-07-29T05:11:30.220Z,1015.65
2022-07-29T05:12:26.164Z,1015.64
2022-07-29T05:13:26.112Z,1015.62
2022-07-29T05:14:26.137Z,1015.59
2022-07-29T05:15:26.215Z,1015.59
2022-07-29T05:16:26.209Z,1015.65
2022-07-29T05:17:26.080Z,1015.65
2022-07-29T05:18:26.395Z,1015.64
2022-07-29T05:19:26.037Z,1015.69
2022-07-29T05:20:26.065Z,1015.70
2022-07-29T05:21:26.029Z,1015.64
2022-07-29T05:22:26.064Z,1015.67
2022-07-29T05:23:25.995Z,1015.66
2022-07-29T05:24:25.979Z,1015.64
2022-07-29T05:25:42.946Z,1015.65
2022-07-29T05:26:25.951Z,1015.67
2022-07-29T05:27:25.923Z,1015.70
2022-07-29T05:28:25.986Z,1015.74
2022-07-29T05:29:43.664Z,1015.71
2022-07-29T05:30:25.939Z,1015.74
2022-07-29T05:31:25.918Z,1015.70
2022-07-29T05:32:25.864Z,1015.72
2022-07-29T05:33:35.295Z,1015.70
2022-07-29T05:34:25.889Z,1015.66
2022-07-29T05:35:25.854Z,1015.67
2022-07-29T05:36:25.816Z,1015.72
2022-07-29T05:37:25.789Z,1015.70
2022-07-29T05:38:25.814Z,1015.67
2022-07-29T05:39:36.550Z,1015.68
2022-07-29T05:40:25.815Z,1015.68
2022-07-29T05:41:25.742Z,1015.67
2022-07-29T05:42:25.736Z,1015.70
2022-07-29T05:43:25.715Z,1015.71
2022-07-29T05:44:25.714Z,1015.72
2022-07-29T05:45:25.684Z,1015.70
2022-07-29T05:46:25.773Z,1015.74
2022-07-29T05:47:25.682Z,1015.74
2022-07-29T05:48:25.699Z,1015.75
2022-07-29T05:49:27.458Z,1015.79
2022-07-29T05:50:25.655Z,1015.80
2022-07-29T05:51:25.601Z,1015.83
2022-07-29T05:52:25.633Z,1015.83
2022-07-29T05:53:25.573Z,1015.81
2022-07-29T05:54:25.580Z,1015.83
2022-07-29T05:55:25.554Z,1015.85
2022-07-29T05:56:25.561Z,1015.80
2022-07-29T05:57:25.524Z,1015.83
2022-07-29T05:58:25.557Z,1015.80
2022-07-29T05:59:30.139Z,1015.83
2022-07-29T06:00:25.502Z,1015.84
2022-07-29T06:01:25.495Z,1015.81
2022-07-29T06:02:25.499Z,1015.85
2022-07-29T06:03:25.443Z,1015.86
2022-07-29T06:04:25.641Z,1015.82
2022-07-29T06:05:25.418Z,1015.86
2022-07-29T06:06:25.419Z,1015.86
2022-07-29T06:07:25.394Z,1015.83
2022-07-29T06:08:25.420Z,1015.83
2022-07-29T06:09:25.363Z,1015.82
2022-07-29T06:10:26.193Z,1015.84
2022-07-29T06:11:25.342Z,1015.84
2022-07-29T06:12:25.338Z,1015.87
2022-07-29T06:13:25.349Z,1015.85
2022-07-29T06:14:25.329Z,1015.91
2022-07-29T06:15:25.293Z,1015.89
2022-07-29T06:16:30.201Z,1015.89
2022-07-29T06:17:25.278Z,1015.88
2022-07-29T06:18:25.255Z,1015.90
2022-07-29T06:19:25.267Z,1015.89
2022-07-29T06:20:27.241Z,1015.87
2022-07-29T06:21:25.221Z,1015.87
2022-07-29T06:22:25.274Z,1015.80
2022-07-29T06:23:25.232Z,1015.84
2022-07-29T06:24:25.171Z,1015.84
2022-07-29T06:25:25.176Z,1015.84
2022-07-29T06:26:26.351Z,1015.85
2022-07-29T06:27:25.147Z,1015.87
2022-07-29T06:28:25.178Z,1015.93
2022-07-29T06:29:25.120Z,1015.91
2022-07-29T06:30:25.149Z,1015.96
2022-07-29T06:31:25.186Z,1015.99
2022-07-29T06:32:27.364Z,1015.97
2022-07-29T06:33:25.071Z,1015.98
2022-07-29T06:34:25.063Z,1016.02
2022-07-29T06:35:39.028Z,1015.98
2022-07-29T06:36:25.086Z,1015.93
2022-07-29T06:37:25.026Z,1015.96
2022-07-29T06:38:30.703Z,1015.93
2022-07-29T06:39:24.982Z,1015.92
2022-07-29T06:40:24.976Z,1015.93
2022-07-29T06:41:24.978Z,1015.98
2022-07-29T06:42:24.938Z,1016.01
2022-07-29T06:43:24.924Z,1015.97
2022-07-29T06:44:24.906Z,1016.01
2022-07-29T06:45:24.895Z,1015.97
2022-07-29T06:46:24.988Z,1015.98
2022-07-29T06:47:24.872Z,1015.95
2022-07-29T06:48:24.853Z,1015.97
2022-07-29T06:49:24.892Z,1016.00
2022-07-29T06:50:24.878Z,1016.03
2022-07-29T06:51:24.818Z,1016.00
2022-07-29T06:52:24.830Z,1016.04
2022-07-29T06:53:24.792Z,1016.05
2022-07-29T06:54:24.768Z,1016.05
2022-07-29T06:55:25.467Z,1016.00
2022-07-29T06:56:24.781Z,1016.04
2022-07-29T06:57:24.748Z,1016.04
2022-07-29T06:58:24.744Z,1016.00
2022-07-29T06:59:33.470Z,1016.03
2022-07-29T07:00:24.821Z,1016.03
2022-07-29T07:01:24.721Z,1016.06
2022-07-29T07:02:24.712Z,1016.01
2022-07-29T07:03:24.655Z,1016.03
2022-07-29T07:04:24.690Z,1016.06
2022-07-29T07:05:24.831Z,1016.07
2022-07-29T07:06:24.615Z,1016.07
2022-07-29T07:07:24.617Z,1016.08
2022-07-29T07:08:24.642Z,1016.08
2022-07-29T07:09:24.601Z,1016.05
2022-07-29T07:10:24.708Z,1016.07
2022-07-29T07:11:24.557Z,1016.10
2022-07-29T07:12:24.909Z,1016.10
2022-07-29T07:13:24.536Z,1016.14
2022-07-29T07:14:24.615Z,1016.13
2022-07-29T07:15:39.234Z,1016.14
2022-07-29T07:16:24.560Z,1016.18
2022-07-29T07:17:24.478Z,1016.21
2022-07-29T07:18:24.503Z,1016.20
2022-07-29T07:19:24.454Z,1016.17
2022-07-29T07:20:24.424Z,1016.25
2022-07-29T07:21:24.434Z,1016.20
2022-07-29T07:22:24.476Z,1016.24
2022-07-29T07:23:24.410Z,1016.20
2022-07-29T07:24:24.375Z,1016.18
2022-07-29T07:25:24.447Z,1016.16
2022-07-29T07:26:24.339Z,1016.19
2022-07-29T07:27:24.348Z,1016.22
2022-07-29T07:28:24.615Z,1016.23
2022-07-29T07:29:24.350Z,1016.18
2022-07-29T07:30:24.291Z,1016.16
2022-07-29T07:31:24.343Z,1016.14
2022-07-29T07:32:24.336Z,1016.13
2022-07-29T07:33:24.268Z,1016.10
2022-07-29T07:34:28.341Z,1016.09
2022-07-29T07:35:24.274Z,1016.07
2022-07-29T07:36:24.313Z,1016.10
2022-07-29T07:37:24.219Z,1016.11
2022-07-29T07:38:24.200Z,1016.14
2022-07-29T07:39:24.239Z,1016.15
2022-07-29T07:40:24.194Z,1016.16
2022-07-29T07:41:24.158Z,1016.19
2022-07-29T07:42:24.181Z,1016.13
2022-07-29T07:43:24.145Z,1016.12
2022-07-29T07:44:24.509Z,1016.15
2022-07-29T07:45:24.111Z,1016.08
2022-07-29T07:46:24.245Z,1016.08
2022-07-29T07:47:24.083Z,1016.12
2022-07-29T07:48:24.068Z,1016.14
2022-07-29T07:49:24.120Z,1016.14
2022-07-29T07:50:24.027Z,1016.15
2022-07-29T07:51:24.057Z,1016.17
2022-07-29T07:52:24.260Z,1016.19
2022-07-29T07:53:24.010Z,1016.11
2022-07-29T07:54:23.978Z,1016.13
2022-07-29T07:55:23.989Z,1016.08
2022-07-29T07:56:23.962Z,1016.15
2022-07-29T07:57:23.953Z,1016.14
2022-07-29T07:58:23.994Z,1016.10
2022-07-29T07:59:23.932Z,1016.14
2022-07-29T08:00:24.021Z,1016.15
2022-07-29T08:01:24.038Z,1016.21
2022-07-29T08:02:23.927Z,1016.18
2022-07-29T08:03:23.892Z,1016.20
2022-07-29T08:04:28.090Z,1016.19
2022-07-29T08:05:23.881Z,1016.21
2022-07-29T08:06:23.822Z,1016.20
2022-07-29T08:07:23.816Z,1016.23
2022-07-29T08:08:23.808Z,1016.23
2022-07-29T08:09:30.990Z,1016.25
2022-07-29T08:10:23.819Z,1016.21
2022-07-29T08:11:23.819Z,1016.23
2022-07-29T08:12:23.743Z,1016.27
2022-07-29T08:13:23.746Z,1016.27
2022-07-29T08:14:23.738Z,1016.31
2022-07-29T08:15:23.727Z,1016.25
2022-07-29T08:16:23.779Z,1016.28
2022-07-29T08:17:23.686Z,1016.26
2022-07-29T08:18:23.686Z,1016.30
2022-07-29T08:19:23.665Z,1016.30
2022-07-29T08:20:23.667Z,1016.33
2022-07-29T08:21:23.718Z,1016.33
2022-07-29T08:22:23.647Z,1016.27
2022-07-29T08:23:23.630Z,1016.32
2022-07-29T08:24:23.605Z,1016.33
2022-07-29T08:25:23.583Z,1016.31
2022-07-29T08:26:23.601Z,1016.26
2022-07-29T08:27:42.557Z,1016.28
2022-07-29T08:28:26.093Z,1016.32
2022-07-29T08:29:23.543Z,1016.33
2022-07-29T08:30:23.540Z,1016.33
2022-07-29T08:31:23.571Z,1016.32
2022-07-29T08:32:50.980Z,1016.30
2022-07-29T08:33:23.487Z,1016.26
2022-07-29T08:34:26.901Z,1016.35
2022-07-29T08:35:23.478Z,1016.33
2022-07-29T08:36:23.485Z,1016.30
2022-07-29T08:37:23.429Z,1016.33
2022-07-29T08:38:23.401Z,1016.32
2022-07-29T08:39:23.416Z,1016.30
2022-07-29T08:40:32.247Z,1016.29
2022-07-29T08:41:23.392Z,1016.28
2022-07-29T08:42:23.355Z,1016.26
2022-07-29T08:43:23.362Z,1016.29
2022-07-29T08:44:29.733Z,1016.30
2022-07-29T08:45:23.445Z,1016.31
2022-07-29T08:46:23.420Z,1016.34
2022-07-29T08:47:23.299Z,1016.31
2022-07-29T08:48:23.319Z,1016.34
2022-07-29T08:49:23.306Z,1016.33
2022-07-29T08:50:23.252Z,1016.34
2022-07-29T08:51:23.261Z,1016.40
2022-07-29T08:52:23.307Z,1016.37
2022-07-29T08:53:23.222Z,1016.34
2022-07-29T08:54:23.195Z,1016.38
2022-07-29T08:55:23.227Z,1016.42
2022-07-29T08:56:23.171Z,1016.38
2022-07-29T08:57:23.183Z,1016.36
2022-07-29T08:58:24.584Z,1016.35
2022-07-29T08:59:23.168Z,1016.35
2022-07-29T09:00:23.148Z,1016.36
2022-07-29T09:01:23.215Z,1016.32
2022-07-29T09:02:23.100Z,1016.41
2022-07-29T09:03:23.135Z,1016.41
2022-07-29T09:04:23.111Z,1016.40
2022-07-29T09:05:23.120Z,1016.38
2022-07-29T09:06:23.043Z,1016.40
2022-07-29T09:07:23.089Z,1016.42
2022-07-29T09:08:23.033Z,1016.36
2022-07-29T09:09:23.061Z,1016.39
2022-07-29T09:10:23.023Z,1016.37
2022-07-29T09:11:22.997Z,1016.35
2022-07-29T09:12:28.697Z,1016.38
2022-07-29T09:13:22.964Z,1016.36
2022-07-29T09:14:22.934Z,1016.37
2022-07-29T09:15:22.934Z,1016.41
2022-07-29T09:16:50.980Z,1016.33
2022-07-29T09:17:23.003Z,1016.31
2022-07-29T09:18:30.855Z,1016.38
2022-07-29T09:19:22.895Z,1016.40
2022-07-29T09:20:22.880Z,1016.41
2022-07-29T09:21:22.856Z,1016.38
2022-07-29T09:22:22.859Z,1016.41
2022-07-29T09:23:24.363Z,1016.45
2022-07-29T09:24:22.814Z,1016.47
2022-07-29T09:25:22.799Z,1016.42
2022-07-29T09:26:22.779Z,1016.38
2022-07-29T09:27:22.831Z,1016.40
2022-07-29T09:28:22.786Z,1016.37
2022-07-29T09:29:22.756Z,1016.42
2022-07-29T09:30:28.835Z,1016.40
2022-07-29T09:31:22.785Z,1016.36
2022-07-29T09:32:22.704Z,1016.36
2022-07-29T09:33:22.701Z,1016.38
2022-07-29T09:34:22.745Z,1016.34
2022-07-29T09:35:22.674Z,1016.29
2022-07-29T09:36:22.676Z,1016.28
2022-07-29T09:37:22.776Z,1016.30
2022-07-29T09:38:22.648Z,1016.30
2022-07-29T09:39:22.642Z,1016.32
2022-07-29T09:40:22.641Z,1016.34
2022-07-29T09:41:22.591Z,1016.33
2022-07-29T09:42:22.598Z,1016.32
2022-07-29T09:43:22.611Z,1016.26
2022-07-29T09:44:22.545Z,1016.28
2022-07-29T09:45:22.581Z,1016.28
2022-07-29T09:46:22.573Z,1016.24
2022-07-29T09:47:22.554Z,1016.29
2022-07-29T09:48:22.490Z,1016.28
2022-07-29T09:49:22.589Z,1016.30
2022-07-29T09:50:22.470Z,1016.28
2022-07-29T09:51:28.504Z,1016.26
2022-07-29T09:52:22.489Z,1016.33
2022-07-29T09:53:22.465Z,1016.34
2022-07-29T09:54:22.417Z,1016.29
2022-07-29T09:55:22.417Z,1016.27
2022-07-29T09:56:22.527Z,1016.30
2022-07-29T09:57:23.692Z,1016.33
2022-07-29T09:58:22.433Z,1016.33
2022-07-29T09:59:22.375Z,1016.32
2022-07-29T10:00:22.346Z,1016.33
2022-07-29T10:01:22.417Z,1016.27
2022-07-29T10:02:23.892Z,1016.26
2022-07-29T10:03:22.518Z,1016.29
2022-07-29T10:04:22.321Z,1016.24
2022-07-29T10:05:22.285Z,1016.26
2022-07-29T10:06:22.255Z,1016.22
2022-07-29T10:07:22.313Z,1016.24
2022-07-29T10:08:22.233Z,1016.21
2022-07-29T10:09:22.449Z,1016.18
2022-07-29T10:10:22.251Z,1016.25
2022-07-29T10:11:22.206Z,1016.20
2022-07-29T10:12:22.293Z,1016.19
2022-07-29T10:13:22.197Z,1016.23
2022-07-29T10:14:22.150Z,1016.24
2022-07-29T10:15:22.205Z,1016.20
2022-07-29T10:16:22.207Z,1016.12
2022-07-29T10:17:22.191Z,1016.15
2022-07-29T10:18:22.161Z,1016.08
2022-07-29T10:19:22.109Z,1016.13
2022-07-29T10:20:22.080Z,1016.15
2022-07-29T10:21:35.298Z,1016.13
2022-07-29T10:22:43.587Z,1016.13
2022-07-29T10:23:22.077Z,1016.13
2022-07-29T10:24:22.040Z,1016.13
2022-07-29T10:25:22.038Z,1016.09
2022-07-29T10:26:22.020Z,1016.04
2022-07-29T10:27:22.015Z,1016.11
2022-07-29T10:28:22.016Z,1016.08
2022-07-29T10:29:21.973Z,1016.07
2022-07-29T10:30:21.984Z,1016.04
2022-07-29T10:31:22.034Z,1016.10
2022-07-29T10:32:21.936Z,1016.12
2022-07-29T10:33:22.102Z,1016.09
2022-07-29T10:34:21.943Z,1016.13
2022-07-29T10:35:21.914Z,1016.09
2022-07-29T10:36:21.935Z,1016.10
2022-07-29T10:37:21.866Z,1016.14
2022-07-29T10:38:21.981Z,1016.13
2022-07-29T10:39:22.384Z,1016.14
2022-07-29T10:40:21.925Z,1016.21
2022-07-29T10:41:21.882Z,1016.20
2022-07-29T10:42:33.423Z,1016.11
2022-07-29T10:43:21.819Z,1016.14
2022-07-29T10:44:22.863Z,1016.14
2022-07-29T10:45:21.804Z,1016.10
2022-07-29T10:46:21.866Z,1016.13
2022-07-29T10:47:21.724Z,1016.16
2022-07-29T10:48:23.586Z,1016.16
2022-07-29T10:49:24.901Z,1016.18
2022-07-29T10:50:21.704Z,1016.24
2022-07-29T10:51:21.706Z,1016.24
2022-07-29T10:52:30.109Z,1016.19
2022-07-29T10:53:21.666Z,1016.20
2022-07-29T10:54:21.696Z,1016.16
2022-07-29T10:55:21.636Z,1016.05
2022-07-29T10:56:21.630Z,1016.11
2022-07-29T10:57:21.634Z,1016.15
2022-07-29T10:58:21.614Z,1016.13
2022-07-29T10:59:22.790Z,1016.14
2022-07-29T11:00:21.574Z,1016.08
2022-07-29T11:01:37.396Z,1016.07
2022-07-29T11:02:41.279Z,1016.07
2022-07-29T11:03:21.629Z,1016.07
2022-07-29T11:04:21.550Z,1016.16
2022-07-29T11:05:21.761Z,1016.14
2022-07-29T11:06:26.301Z,1016.15
2022-07-29T11:07:21.470Z,1016.16
2022-07-29T11:08:26.115Z,1016.13
2022-07-29T11:09:27.354Z,1016.12
2022-07-29T11:10:21.447Z,1016.12
2022-07-29T11:11:22.018Z,1016.13
2022-07-29T11:12:21.409Z,1016.07
2022-07-29T11:13:21.389Z,1016.06
2022-07-29T11:14:24.930Z,1016.08
2022-07-29T11:15:21.409Z,1016.05
2022-07-29T11:16:21.391Z,1016.11
2022-07-29T11:17:21.409Z,1016.08
2022-07-29T11:18:21.388Z,1016.10
2022-07-29T11:19:26.264Z,1016.11
2022-07-29T11:20:21.317Z,1016.07
2022-07-29T11:21:23.360Z,1016.18
2022-07-29T11:22:21.347Z,1016.12
2022-07-29T11:23:21.744Z,1016.20
2022-07-29T11:24:29.277Z,1016.15
2022-07-29T11:25:50.571Z,1016.17
2022-07-29T11:26:22.921Z,1016.18
2022-07-29T11:27:21.327Z,1016.17
2022-07-29T11:28:23.161Z,1016.12
2022-07-29T11:29:21.183Z,1016.23
2022-07-29T11:30:21.185Z,1016.15
2022-07-29T11:31:21.196Z,1016.12
2022-07-29T11:32:23.532Z,1016.12
2022-07-29T11:46:32.148Z,1016.23
2022-07-29T11:47:39.385Z,1016.25
2022-07-29T11:48:33.124Z,1016.27
2022-07-29T11:49:33.345Z,1016.20
2022-07-29T11:50:33.070Z,1016.22
2022-07-29T11:51:33.294Z,1016.24
2022-07-29T11:52:33.054Z,1016.16
2022-07-29T11:53:33.430Z,1016.25
2022-07-29T11:54:33.052Z,1016.18
2022-07-29T12:07:02.302Z,1016.19
2022-07-29T12:07:15.630Z,1016.20
2022-07-29T12:08:14.879Z,1016.18
2022-07-29T12:09:14.740Z,1016.20
2022-07-29T12:10:19.860Z,1016.19
2022-07-29T12:11:12.773Z,1016.17
2022-07-29T12:12:12.763Z,1016.16
2022-07-29T12:13:12.706Z,1016.18
2022-07-29T12:14:12.705Z,1016.18
2022-07-29T12:15:12.679Z,1016.23
2022-07-29T12:16:14.565Z,1016.22
2022-07-29T12:17:12.634Z,1016.19
2022-07-29T12:18:12.723Z,1016.17
2022-07-29T12:19:12.635Z,1016.22
2022-07-29T12:20:12.673Z,1016.19
2022-07-29T12:21:12.667Z,1016.17
2022-07-29T12:22:12.601Z,1016.21
2022-07-29T12:23:12.604Z,1016.20
2022-07-29T12:24:12.620Z,1016.26
2022-07-29T12:26:21.793Z,1016.20
2022-07-29T12:27:12.514Z,1016.22
2022-07-29T12:28:14.251Z,1016.23
2022-07-29T12:29:15.534Z,1016.17
2022-07-29T12:30:12.537Z,1016.18